sensor_id;sensor_type;location;lat;lon;timestamp;P1;durP1;ratioP1;P2;durP2;ratioP2
8098;SDS011;4092;47.876;9.372;2023-12-14T00:00:12;1.80;;;1.57;;
8098;SDS011;4092;47.876;9.372;2023-12-14T00:02:40;2.10;;;1.77;;
8098;SDS011;4092;47.876;9.372;2023-12-14T00:05:07;2.20;;;1.37;;
8098;SDS011;4092;47.876;9.372;2023-12-14T00:07:35;3.10;;;1.40;;
8098;SDS011;4092;47.876;9.372;2023-12-14T00:10:02;2.00;;;1.80;;
8098;SDS011;4092;47.876;9.372;2023-12-14T00:12:31;1.53;;;1.07;;
8098;SDS011;4092;47.876;9.372;2023-12-14T00:14:59;2.90;;;1.50;;
8098;SDS011;4092;47.876;9.372;2023-12-14T00:17:26;1.30;;;1.20;;
8098;SDS011;4092;47.876;9.372;2023-12-14T00:19:53;1.27;;;1.03;;
8098;SDS011;4092;47.876;9.372;2023-12-14T00:22:20;1.53;;;1.43;;
8098;SDS011;4092;47.876;9.372;2023-12-14T00:24:47;1.50;;;1.20;;
8098;SDS011;4092;47.876;9.372;2023-12-14T00:27:14;1.53;;;1.43;;
8098;SDS011;4092;47.876;9.372;2023-12-14T00:29:43;1.77;;;1.30;;
8098;SDS011;4092;47.876;9.372;2023-12-14T00:32:10;2.53;;;1.90;;
8098;SDS011;4092;47.876;9.372;2023-12-14T00:34:37;1.73;;;1.63;;
8098;SDS011;4092;47.876;9.372;2023-12-14T00:37:04;1.40;;;1.30;;
8098;SDS011;4092;47.876;9.372;2023-12-14T00:39:31;1.40;;;1.17;;
8098;SDS011;4092;47.876;9.372;2023-12-14T00:41:58;1.40;;;1.20;;
8098;SDS011;4092;47.876;9.372;2023-12-14T00:44:25;2.27;;;2.07;;
8098;SDS011;4092;47.876;9.372;2023-12-14T00:46:53;1.50;;;1.30;;
8098;SDS011;4092;47.876;9.372;2023-12-14T00:49:19;1.37;;;1.23;;
8098;SDS011;4092;47.876;9.372;2023-12-14T00:51:46;1.40;;;1.17;;
8098;SDS011;4092;47.876;9.372;2023-12-14T00:54:13;1.30;;;1.20;;
8098;SDS011;4092;47.876;9.372;2023-12-14T00:56:40;1.40;;;1.30;;
8098;SDS011;4092;47.876;9.372;2023-12-14T00:59:07;1.33;;;1.23;;
8098;SDS011;4092;47.876;9.372;2023-12-14T01:01:34;1.77;;;1.40;;
8098;SDS011;4092;47.876;9.372;2023-12-14T01:04:03;1.63;;;1.20;;
8098;SDS011;4092;47.876;9.372;2023-12-14T01:06:31;1.77;;;1.20;;
8098;SDS011;4092;47.876;9.372;2023-12-14T01:08:58;1.60;;;1.30;;
8098;SDS011;4092;47.876;9.372;2023-12-14T01:11:25;2.07;;;1.30;;
8098;SDS011;4092;47.876;9.372;2023-12-14T01:13:51;1.57;;;1.10;;
8098;SDS011;4092;47.876;9.372;2023-12-14T01:16:19;2.33;;;1.50;;
8098;SDS011;4092;47.876;9.372;2023-12-14T01:18:46;1.60;;;1.20;;
8098;SDS011;4092;47.876;9.372;2023-12-14T01:21:14;1.77;;;1.30;;
8098;SDS011;4092;47.876;9.372;2023-12-14T01:23:41;1.47;;;1.20;;
8098;SDS011;4092;47.876;9.372;2023-12-14T01:26:09;1.83;;;1.73;;
8098;SDS011;4092;47.876;9.372;2023-12-14T01:28:36;1.67;;;1.10;;
8098;SDS011;4092;47.876;9.372;2023-12-14T01:31:03;1.77;;;1.63;;
8098;SDS011;4092;47.876;9.372;2023-12-14T01:33:30;1.20;;;1.10;;
8098;SDS011;4092;47.876;9.372;2023-12-14T01:35:58;1.30;;;1.20;;
8098;SDS011;4092;47.876;9.372;2023-12-14T01:38:27;1.53;;;0.90;;
8098;SDS011;4092;47.876;9.372;2023-12-14T01:40:54;1.00;;;0.90;;
8098;SDS011;4092;47.876;9.372;2023-12-14T01:43:21;2.60;;;1.83;;
8098;SDS011;4092;47.876;9.372;2023-12-14T01:45:48;2.60;;;1.20;;
8098;SDS011;4092;47.876;9.372;2023-12-14T01:48:15;1.40;;;1.23;;
8098;SDS011;4092;47.876;9.372;2023-12-14T01:50:42;2.43;;;1.20;;
8098;SDS011;4092;47.876;9.372;2023-12-14T01:53:08;2.57;;;0.97;;
8098;SDS011;4092;47.876;9.372;2023-12-14T01:55:37;1.57;;;1.00;;
8098;SDS011;4092;47.876;9.372;2023-12-14T01:58:04;1.00;;;0.80;;
8098;SDS011;4092;47.876;9.372;2023-12-14T02:00:34;0.90;;;0.80;;
8098;SDS011;4092;47.876;9.372;2023-12-14T02:03:05;0.90;;;0.80;;
8098;SDS011;4092;47.876;9.372;2023-12-14T02:05:32;0.90;;;0.73;;
8098;SDS011;4092;47.876;9.372;2023-12-14T02:08:00;2.27;;;1.10;;
8098;SDS011;4092;47.876;9.372;2023-12-14T02:10:26;1.00;;;0.80;;
8098;SDS011;4092;47.876;9.372;2023-12-14T02:12:57;1.00;;;0.90;;
8098;SDS011;4092;47.876;9.372;2023-12-14T02:15:24;2.67;;;1.00;;
8098;SDS011;4092;47.876;9.372;2023-12-14T02:17:51;1.37;;;1.23;;
8098;SDS011;4092;47.876;9.372;2023-12-14T02:20:18;1.50;;;1.00;;
8098;SDS011;4092;47.876;9.372;2023-12-14T02:22:50;0.97;;;0.77;;
8098;SDS011;4092;47.876;9.372;2023-12-14T02:25:18;2.50;;;0.90;;
8098;SDS011;4092;47.876;9.372;2023-12-14T02:27:45;1.00;;;0.80;;
8098;SDS011;4092;47.876;9.372;2023-12-14T02:30:13;1.10;;;0.90;;
8098;SDS011;4092;47.876;9.372;2023-12-14T02:32:40;1.20;;;0.80;;
8098;SDS011;4092;47.876;9.372;2023-12-14T02:35:07;1.10;;;0.80;;
8098;SDS011;4092;47.876;9.372;2023-12-14T02:37:35;1.40;;;1.10;;
8098;SDS011;4092;47.876;9.372;2023-12-14T02:40:07;1.50;;;1.10;;
8098;SDS011;4092;47.876;9.372;2023-12-14T02:42:35;4.73;;;1.47;;
8098;SDS011;4092;47.876;9.372;2023-12-14T02:45:02;2.70;;;1.40;;
8098;SDS011;4092;47.876;9.372;2023-12-14T02:47:30;1.67;;;1.37;;
8098;SDS011;4092;47.876;9.372;2023-12-14T02:49:57;1.40;;;1.20;;
8098;SDS011;4092;47.876;9.372;2023-12-14T02:52:24;1.87;;;1.30;;
8098;SDS011;4092;47.876;9.372;2023-12-14T02:54:51;1.50;;;1.20;;
8098;SDS011;4092;47.876;9.372;2023-12-14T02:57:20;2.30;;;1.70;;
8098;SDS011;4092;47.876;9.372;2023-12-14T02:59:47;2.30;;;1.60;;
8098;SDS011;4092;47.876;9.372;2023-12-14T03:02:14;4.50;;;1.90;;
8098;SDS011;4092;47.876;9.372;2023-12-14T03:04:41;3.03;;;1.70;;
8098;SDS011;4092;47.876;9.372;2023-12-14T03:07:08;1.60;;;1.50;;
8098;SDS011;4092;47.876;9.372;2023-12-14T03:09:38;2.73;;;1.60;;
8098;SDS011;4092;47.876;9.372;2023-12-14T03:12:09;2.37;;;1.77;;
8098;SDS011;4092;47.876;9.372;2023-12-14T03:14:37;4.90;;;2.20;;
8098;SDS011;4092;47.876;9.372;2023-12-14T03:17:06;5.07;;;2.27;;
8098;SDS011;4092;47.876;9.372;2023-12-14T03:19:37;2.13;;;1.93;;
8098;SDS011;4092;47.876;9.372;2023-12-14T03:22:05;4.87;;;1.97;;
8098;SDS011;4092;47.876;9.372;2023-12-14T03:24:32;2.83;;;2.30;;
8098;SDS011;4092;47.876;9.372;2023-12-14T03:26:59;2.40;;;1.53;;
8098;SDS011;4092;47.876;9.372;2023-12-14T03:29:27;3.97;;;2.77;;
8098;SDS011;4092;47.876;9.372;2023-12-14T03:31:56;2.77;;;1.87;;
8098;SDS011;4092;47.876;9.372;2023-12-14T03:34:23;4.07;;;2.57;;
8098;SDS011;4092;47.876;9.372;2023-12-14T03:36:50;2.13;;;1.73;;
8098;SDS011;4092;47.876;9.372;2023-12-14T03:39:18;3.70;;;2.20;;
8098;SDS011;4092;47.876;9.372;2023-12-14T03:41:45;2.70;;;2.33;;
8098;SDS011;4092;47.876;9.372;2023-12-14T03:44:12;10.97;;;2.37;;
8098;SDS011;4092;47.876;9.372;2023-12-14T03:46:40;4.13;;;3.03;;
8098;SDS011;4092;47.876;9.372;2023-12-14T03:49:09;5.60;;;3.00;;
8098;SDS011;4092;47.876;9.372;2023-12-14T03:51:36;4.50;;;2.40;;
8098;SDS011;4092;47.876;9.372;2023-12-14T03:54:03;9.77;;;2.33;;
8098;SDS011;4092;47.876;9.372;2023-12-14T03:56:31;2.60;;;2.03;;
8098;SDS011;4092;47.876;9.372;2023-12-14T03:58:59;3.63;;;2.47;;
8098;SDS011;4092;47.876;9.372;2023-12-14T04:01:28;4.57;;;1.80;;
8098;SDS011;4092;47.876;9.372;2023-12-14T04:03:55;4.03;;;2.53;;
8098;SDS011;4092;47.876;9.372;2023-12-14T04:06:23;2.80;;;2.10;;
8098;SDS011;4092;47.876;9.372;2023-12-14T04:08:51;3.30;;;2.40;;
8098;SDS011;4092;47.876;9.372;2023-12-14T04:11:18;5.03;;;3.73;;
8098;SDS011;4092;47.876;9.372;2023-12-14T04:13:45;3.00;;;2.23;;
8098;SDS011;4092;47.876;9.372;2023-12-14T04:16:15;3.20;;;2.10;;
8098;SDS011;4092;47.876;9.372;2023-12-14T04:18:45;3.50;;;2.60;;
8098;SDS011;4092;47.876;9.372;2023-12-14T04:21:12;7.73;;;3.57;;
8098;SDS011;4092;47.876;9.372;2023-12-14T04:23:40;4.67;;;3.53;;
8098;SDS011;4092;47.876;9.372;2023-12-14T04:26:10;3.07;;;2.20;;
8098;SDS011;4092;47.876;9.372;2023-12-14T04:28:38;5.43;;;2.53;;
8098;SDS011;4092;47.876;9.372;2023-12-14T04:31:10;5.07;;;2.80;;
8098;SDS011;4092;47.876;9.372;2023-12-14T04:33:37;6.07;;;3.30;;
8098;SDS011;4092;47.876;9.372;2023-12-14T04:36:05;5.40;;;2.63;;
8098;SDS011;4092;47.876;9.372;2023-12-14T04:38:33;6.40;;;3.27;;
8098;SDS011;4092;47.876;9.372;2023-12-14T04:41:01;5.33;;;3.03;;
8098;SDS011;4092;47.876;9.372;2023-12-14T04:43:28;4.53;;;2.43;;
8098;SDS011;4092;47.876;9.372;2023-12-14T04:45:57;5.60;;;3.37;;
8098;SDS011;4092;47.876;9.372;2023-12-14T04:48:24;4.53;;;2.50;;
8098;SDS011;4092;47.876;9.372;2023-12-14T04:50:52;5.27;;;3.63;;
8098;SDS011;4092;47.876;9.372;2023-12-14T04:53:19;3.90;;;2.80;;
8098;SDS011;4092;47.876;9.372;2023-12-14T04:55:45;3.50;;;2.40;;
8098;SDS011;4092;47.876;9.372;2023-12-14T04:58:14;3.93;;;2.30;;
8098;SDS011;4092;47.876;9.372;2023-12-14T05:00:41;5.70;;;2.83;;
8098;SDS011;4092;47.876;9.372;2023-12-14T05:03:08;4.97;;;3.23;;
8098;SDS011;4092;47.876;9.372;2023-12-14T05:05:36;6.00;;;2.60;;
8098;SDS011;4092;47.876;9.372;2023-12-14T05:08:03;3.53;;;2.10;;
8098;SDS011;4092;47.876;9.372;2023-12-14T05:10:30;10.73;;;3.70;;
8098;SDS011;4092;47.876;9.372;2023-12-14T05:12:57;11.57;;;5.50;;
8098;SDS011;4092;47.876;9.372;2023-12-14T05:15:26;6.97;;;4.37;;
8098;SDS011;4092;47.876;9.372;2023-12-14T05:17:53;4.73;;;2.80;;
8098;SDS011;4092;47.876;9.372;2023-12-14T05:20:20;5.60;;;3.53;;
8098;SDS011;4092;47.876;9.372;2023-12-14T05:22:47;6.93;;;5.27;;
8098;SDS011;4092;47.876;9.372;2023-12-14T05:25:14;3.20;;;2.00;;
8098;SDS011;4092;47.876;9.372;2023-12-14T05:27:41;5.30;;;2.70;;
8098;SDS011;4092;47.876;9.372;2023-12-14T05:30:08;3.30;;;2.23;;
8098;SDS011;4092;47.876;9.372;2023-12-14T05:32:38;4.43;;;2.80;;
8098;SDS011;4092;47.876;9.372;2023-12-14T05:35:05;4.03;;;2.53;;
8098;SDS011;4092;47.876;9.372;2023-12-14T05:37:34;4.20;;;2.57;;
8098;SDS011;4092;47.876;9.372;2023-12-14T05:40:05;9.57;;;2.93;;
8098;SDS011;4092;47.876;9.372;2023-12-14T05:42:32;3.37;;;2.43;;
8098;SDS011;4092;47.876;9.372;2023-12-14T05:44:59;4.43;;;2.77;;
8098;SDS011;4092;47.876;9.372;2023-12-14T05:47:26;2.67;;;2.00;;
8098;SDS011;4092;47.876;9.372;2023-12-14T05:49:56;1.87;;;1.70;;
8098;SDS011;4092;47.876;9.372;2023-12-14T05:52:24;3.70;;;2.07;;
8098;SDS011;4092;47.876;9.372;2023-12-14T05:54:51;2.37;;;2.17;;
8098;SDS011;4092;47.876;9.372;2023-12-14T05:57:18;2.90;;;2.27;;
8098;SDS011;4092;47.876;9.372;2023-12-14T05:59:45;2.20;;;2.00;;
8098;SDS011;4092;47.876;9.372;2023-12-14T06:02:12;4.27;;;1.60;;
8098;SDS011;4092;47.876;9.372;2023-12-14T06:04:39;2.60;;;2.13;;
8098;SDS011;4092;47.876;9.372;2023-12-14T06:07:08;4.70;;;3.37;;
8098;SDS011;4092;47.876;9.372;2023-12-14T06:09:35;4.47;;;2.57;;
8098;SDS011;4092;47.876;9.372;2023-12-14T06:12:02;5.13;;;2.60;;
8098;SDS011;4092;47.876;9.372;2023-12-14T06:14:30;3.27;;;2.20;;
8098;SDS011;4092;47.876;9.372;2023-12-14T06:16:57;4.57;;;2.83;;
8098;SDS011;4092;47.876;9.372;2023-12-14T06:19:25;2.30;;;1.77;;
8098;SDS011;4092;47.876;9.372;2023-12-14T06:21:51;2.93;;;2.60;;
8098;SDS011;4092;47.876;9.372;2023-12-14T06:24:19;3.77;;;3.27;;
8098;SDS011;4092;47.876;9.372;2023-12-14T06:26:47;2.90;;;2.20;;
8098;SDS011;4092;47.876;9.372;2023-12-14T06:29:15;5.53;;;2.30;;
8098;SDS011;4092;47.876;9.372;2023-12-14T06:31:45;4.83;;;3.37;;
8098;SDS011;4092;47.876;9.372;2023-12-14T06:34:14;3.77;;;2.23;;
8098;SDS011;4092;47.876;9.372;2023-12-14T06:36:41;4.97;;;3.17;;
8098;SDS011;4092;47.876;9.372;2023-12-14T06:39:09;8.40;;;3.03;;
8098;SDS011;4092;47.876;9.372;2023-12-14T06:41:38;3.23;;;2.93;;
8098;SDS011;4092;47.876;9.372;2023-12-14T06:44:05;2.83;;;2.07;;
8098;SDS011;4092;47.876;9.372;2023-12-14T06:46:34;4.30;;;1.97;;
8098;SDS011;4092;47.876;9.372;2023-12-14T06:49:01;5.20;;;3.50;;
8098;SDS011;4092;47.876;9.372;2023-12-14T06:51:27;2.40;;;2.00;;
8098;SDS011;4092;47.876;9.372;2023-12-14T06:53:54;3.00;;;2.33;;
8098;SDS011;4092;47.876;9.372;2023-12-14T06:56:21;2.80;;;2.33;;
8098;SDS011;4092;47.876;9.372;2023-12-14T06:58:50;4.07;;;1.83;;
8098;SDS011;4092;47.876;9.372;2023-12-14T07:01:17;3.40;;;2.20;;
8098;SDS011;4092;47.876;9.372;2023-12-14T07:03:44;3.70;;;2.40;;
8098;SDS011;4092;47.876;9.372;2023-12-14T07:06:13;5.20;;;2.20;;
8098;SDS011;4092;47.876;9.372;2023-12-14T07:08:40;2.80;;;2.30;;
8098;SDS011;4092;47.876;9.372;2023-12-14T07:11:09;4.23;;;2.90;;
8098;SDS011;4092;47.876;9.372;2023-12-14T07:13:37;2.43;;;1.87;;
8098;SDS011;4092;47.876;9.372;2023-12-14T07:16:08;2.60;;;2.07;;
8098;SDS011;4092;47.876;9.372;2023-12-14T07:18:37;3.90;;;3.00;;
8098;SDS011;4092;47.876;9.372;2023-12-14T07:21:04;2.50;;;2.17;;
8098;SDS011;4092;47.876;9.372;2023-12-14T07:23:32;3.40;;;2.20;;
8098;SDS011;4092;47.876;9.372;2023-12-14T07:25:59;2.80;;;2.10;;
8098;SDS011;4092;47.876;9.372;2023-12-14T07:28:26;5.37;;;2.87;;
8098;SDS011;4092;47.876;9.372;2023-12-14T07:30:54;4.30;;;3.20;;
8098;SDS011;4092;47.876;9.372;2023-12-14T07:33:22;3.57;;;2.20;;
8098;SDS011;4092;47.876;9.372;2023-12-14T07:35:50;4.30;;;2.37;;
8098;SDS011;4092;47.876;9.372;2023-12-14T07:38:17;3.60;;;2.50;;
8098;SDS011;4092;47.876;9.372;2023-12-14T07:40:44;3.07;;;2.00;;
8098;SDS011;4092;47.876;9.372;2023-12-14T07:43:12;3.63;;;2.57;;
8098;SDS011;4092;47.876;9.372;2023-12-14T07:45:39;2.63;;;2.17;;
8098;SDS011;4092;47.876;9.372;2023-12-14T07:48:07;2.10;;;1.90;;
8098;SDS011;4092;47.876;9.372;2023-12-14T07:50:36;4.57;;;2.70;;
8098;SDS011;4092;47.876;9.372;2023-12-14T07:53:03;5.20;;;3.00;;
8098;SDS011;4092;47.876;9.372;2023-12-14T07:55:30;5.10;;;2.43;;
8098;SDS011;4092;47.876;9.372;2023-12-14T07:57:57;5.57;;;2.40;;
8098;SDS011;4092;47.876;9.372;2023-12-14T08:00:24;3.20;;;2.50;;
8098;SDS011;4092;47.876;9.372;2023-12-14T08:02:53;4.17;;;2.77;;
8098;SDS011;4092;47.876;9.372;2023-12-14T08:05:20;4.50;;;3.27;;
8098;SDS011;4092;47.876;9.372;2023-12-14T08:07:48;5.80;;;3.60;;
8098;SDS011;4092;47.876;9.372;2023-12-14T08:10:17;4.83;;;2.33;;
8098;SDS011;4092;47.876;9.372;2023-12-14T08:12:45;7.60;;;4.43;;
8098;SDS011;4092;47.876;9.372;2023-12-14T08:15:13;5.13;;;2.97;;
8098;SDS011;4092;47.876;9.372;2023-12-14T08:17:41;3.60;;;2.63;;
8098;SDS011;4092;47.876;9.372;2023-12-14T08:20:09;2.70;;;1.93;;
8098;SDS011;4092;47.876;9.372;2023-12-14T08:22:37;7.23;;;3.73;;
8098;SDS011;4092;47.876;9.372;2023-12-14T08:25:10;4.00;;;2.70;;
8098;SDS011;4092;47.876;9.372;2023-12-14T08:27:38;5.20;;;3.23;;
8098;SDS011;4092;47.876;9.372;2023-12-14T08:30:09;5.37;;;2.63;;
8098;SDS011;4092;47.876;9.372;2023-12-14T08:32:37;6.03;;;2.47;;
8098;SDS011;4092;47.876;9.372;2023-12-14T08:35:06;5.10;;;2.70;;
8098;SDS011;4092;47.876;9.372;2023-12-14T08:37:35;4.00;;;2.50;;
8098;SDS011;4092;47.876;9.372;2023-12-14T08:40:02;5.57;;;3.87;;
8098;SDS011;4092;47.876;9.372;2023-12-14T08:42:32;6.00;;;3.83;;
8098;SDS011;4092;47.876;9.372;2023-12-14T08:44:59;3.47;;;2.23;;
8098;SDS011;4092;47.876;9.372;2023-12-14T08:47:26;4.20;;;3.00;;
8098;SDS011;4092;47.876;9.372;2023-12-14T08:49:53;4.93;;;3.10;;
8098;SDS011;4092;47.876;9.372;2023-12-14T08:52:20;3.17;;;2.30;;
8098;SDS011;4092;47.876;9.372;2023-12-14T08:54:47;3.10;;;2.37;;
8098;SDS011;4092;47.876;9.372;2023-12-14T08:57:15;3.53;;;2.60;;
8098;SDS011;4092;47.876;9.372;2023-12-14T08:59:44;2.77;;;2.30;;
8098;SDS011;4092;47.876;9.372;2023-12-14T09:02:11;2.77;;;2.50;;
8098;SDS011;4092;47.876;9.372;2023-12-14T09:04:38;5.00;;;2.83;;
8098;SDS011;4092;47.876;9.372;2023-12-14T09:07:05;4.60;;;3.63;;
8098;SDS011;4092;47.876;9.372;2023-12-14T09:09:32;3.80;;;3.20;;
8098;SDS011;4092;47.876;9.372;2023-12-14T09:11:59;6.10;;;4.63;;
8098;SDS011;4092;47.876;9.372;2023-12-14T09:14:26;3.30;;;2.70;;
8098;SDS011;4092;47.876;9.372;2023-12-14T09:16:56;3.57;;;3.17;;
8098;SDS011;4092;47.876;9.372;2023-12-14T09:19:23;2.53;;;2.10;;
8098;SDS011;4092;47.876;9.372;2023-12-14T09:21:50;6.93;;;2.53;;
8098;SDS011;4092;47.876;9.372;2023-12-14T09:24:17;3.83;;;2.30;;
8098;SDS011;4092;47.876;9.372;2023-12-14T09:26:44;2.90;;;2.60;;
8098;SDS011;4092;47.876;9.372;2023-12-14T09:29:11;3.67;;;2.80;;
8098;SDS011;4092;47.876;9.372;2023-12-14T09:31:40;6.17;;;1.70;;
8098;SDS011;4092;47.876;9.372;2023-12-14T09:34:09;3.43;;;2.87;;
8098;SDS011;4092;47.876;9.372;2023-12-14T09:36:36;5.07;;;2.73;;
8098;SDS011;4092;47.876;9.372;2023-12-14T09:39:04;4.17;;;2.50;;
8098;SDS011;4092;47.876;9.372;2023-12-14T09:41:35;4.90;;;2.40;;
8098;SDS011;4092;47.876;9.372;2023-12-14T09:44:03;6.40;;;5.20;;
8098;SDS011;4092;47.876;9.372;2023-12-14T09:46:31;5.07;;;2.70;;
8098;SDS011;4092;47.876;9.372;2023-12-14T09:48:59;3.67;;;3.10;;
8098;SDS011;4092;47.876;9.372;2023-12-14T09:51:29;3.40;;;2.10;;
8098;SDS011;4092;47.876;9.372;2023-12-14T09:53:56;4.10;;;2.60;;
8098;SDS011;4092;47.876;9.372;2023-12-14T09:56:24;4.60;;;2.17;;
8098;SDS011;4092;47.876;9.372;2023-12-14T09:58:51;2.83;;;2.47;;
8098;SDS011;4092;47.876;9.372;2023-12-14T10:01:22;4.00;;;2.80;;
8098;SDS011;4092;47.876;9.372;2023-12-14T10:03:50;2.57;;;2.37;;
8098;SDS011;4092;47.876;9.372;2023-12-14T10:06:34;2.87;;;2.37;;
8098;SDS011;4092;47.876;9.372;2023-12-14T10:09:01;3.73;;;2.50;;
8098;SDS011;4092;47.876;9.372;2023-12-14T10:11:28;2.37;;;1.87;;
8098;SDS011;4092;47.876;9.372;2023-12-14T10:13:55;5.00;;;2.87;;
8098;SDS011;4092;47.876;9.372;2023-12-14T10:16:26;2.50;;;1.80;;
8098;SDS011;4092;47.876;9.372;2023-12-14T10:18:55;3.30;;;2.27;;
8098;SDS011;4092;47.876;9.372;2023-12-14T10:21:23;2.60;;;1.90;;
8098;SDS011;4092;47.876;9.372;2023-12-14T10:23:52;2.70;;;2.27;;
8098;SDS011;4092;47.876;9.372;2023-12-14T10:26:22;3.00;;;2.30;;
8098;SDS011;4092;47.876;9.372;2023-12-14T10:28:50;3.80;;;2.80;;
8098;SDS011;4092;47.876;9.372;2023-12-14T10:31:18;4.43;;;2.10;;
8098;SDS011;4092;47.876;9.372;2023-12-14T10:33:46;3.10;;;2.47;;
8098;SDS011;4092;47.876;9.372;2023-12-14T10:36:15;4.03;;;2.03;;
8098;SDS011;4092;47.876;9.372;2023-12-14T10:38:44;4.17;;;3.10;;
8098;SDS011;4092;47.876;9.372;2023-12-14T10:41:16;3.80;;;2.80;;
8098;SDS011;4092;47.876;9.372;2023-12-14T10:43:44;3.43;;;2.70;;
8098;SDS011;4092;47.876;9.372;2023-12-14T10:46:13;5.70;;;2.73;;
8098;SDS011;4092;47.876;9.372;2023-12-14T10:48:40;4.23;;;2.07;;
8098;SDS011;4092;47.876;9.372;2023-12-14T10:51:09;2.40;;;1.83;;
8098;SDS011;4092;47.876;9.372;2023-12-14T10:53:38;5.03;;;2.20;;
8098;SDS011;4092;47.876;9.372;2023-12-14T10:56:09;2.03;;;1.87;;
8098;SDS011;4092;47.876;9.372;2023-12-14T10:58:50;3.20;;;2.03;;
8098;SDS011;4092;47.876;9.372;2023-12-14T11:01:19;2.80;;;1.50;;
8098;SDS011;4092;47.876;9.372;2023-12-14T11:03:48;3.33;;;3.03;;
8098;SDS011;4092;47.876;9.372;2023-12-14T11:06:29;3.43;;;2.00;;
8098;SDS011;4092;47.876;9.372;2023-12-14T11:08:58;6.10;;;3.50;;
8098;SDS011;4092;47.876;9.372;2023-12-14T11:11:31;3.60;;;2.93;;
8098;SDS011;4092;47.876;9.372;2023-12-14T11:14:08;3.30;;;2.73;;
8098;SDS011;4092;47.876;9.372;2023-12-14T11:16:38;4.53;;;2.57;;
8098;SDS011;4092;47.876;9.372;2023-12-14T11:19:25;4.83;;;2.73;;
8098;SDS011;4092;47.876;9.372;2023-12-14T11:22:10;6.67;;;3.30;;
8098;SDS011;4092;47.876;9.372;2023-12-14T11:24:50;3.00;;;2.30;;
8098;SDS011;4092;47.876;9.372;2023-12-14T11:27:26;6.87;;;3.70;;
8098;SDS011;4092;47.876;9.372;2023-12-14T11:29:57;5.57;;;3.10;;
8098;SDS011;4092;47.876;9.372;2023-12-14T11:32:25;5.70;;;3.90;;
8098;SDS011;4092;47.876;9.372;2023-12-14T11:34:52;3.20;;;2.33;;
8098;SDS011;4092;47.876;9.372;2023-12-14T11:37:19;2.70;;;1.63;;
8098;SDS011;4092;47.876;9.372;2023-12-14T11:39:49;2.77;;;2.20;;
8098;SDS011;4092;47.876;9.372;2023-12-14T11:42:18;3.00;;;2.60;;
8098;SDS011;4092;47.876;9.372;2023-12-14T11:44:45;4.90;;;2.90;;
8098;SDS011;4092;47.876;9.372;2023-12-14T11:47:14;4.13;;;1.90;;
8098;SDS011;4092;47.876;9.372;2023-12-14T11:49:42;3.80;;;2.60;;
8098;SDS011;4092;47.876;9.372;2023-12-14T11:52:09;6.07;;;3.23;;
8098;SDS011;4092;47.876;9.372;2023-12-14T11:54:37;4.00;;;2.50;;
8098;SDS011;4092;47.876;9.372;2023-12-14T11:57:04;6.30;;;2.70;;
8098;SDS011;4092;47.876;9.372;2023-12-14T11:59:34;4.30;;;2.60;;
8098;SDS011;4092;47.876;9.372;2023-12-14T12:02:03;4.00;;;2.70;;
8098;SDS011;4092;47.876;9.372;2023-12-14T12:04:32;4.63;;;2.57;;
8098;SDS011;4092;47.876;9.372;2023-12-14T12:06:59;4.70;;;3.00;;
8098;SDS011;4092;47.876;9.372;2023-12-14T12:09:37;5.73;;;3.43;;
8098;SDS011;4092;47.876;9.372;2023-12-14T12:12:07;4.60;;;3.20;;
8098;SDS011;4092;47.876;9.372;2023-12-14T12:14:35;4.30;;;3.13;;
8098;SDS011;4092;47.876;9.372;2023-12-14T12:17:02;3.30;;;3.00;;
8098;SDS011;4092;47.876;9.372;2023-12-14T12:19:32;3.40;;;2.03;;
8098;SDS011;4092;47.876;9.372;2023-12-14T12:22:00;3.27;;;2.10;;
8098;SDS011;4092;47.876;9.372;2023-12-14T12:24:28;4.43;;;2.80;;
8098;SDS011;4092;47.876;9.372;2023-12-14T12:26:55;3.67;;;2.30;;
8098;SDS011;4092;47.876;9.372;2023-12-14T12:29:23;3.97;;;2.40;;
8098;SDS011;4092;47.876;9.372;2023-12-14T12:31:51;5.63;;;3.10;;
8098;SDS011;4092;47.876;9.372;2023-12-14T12:34:18;4.87;;;3.03;;
8098;SDS011;4092;47.876;9.372;2023-12-14T12:36:47;3.57;;;2.53;;
8098;SDS011;4092;47.876;9.372;2023-12-14T12:39:14;5.07;;;2.30;;
8098;SDS011;4092;47.876;9.372;2023-12-14T12:41:42;2.47;;;1.90;;
8098;SDS011;4092;47.876;9.372;2023-12-14T12:44:09;2.83;;;1.87;;
8098;SDS011;4092;47.876;9.372;2023-12-14T12:46:36;2.50;;;1.83;;
8098;SDS011;4092;47.876;9.372;2023-12-14T12:49:04;2.70;;;1.90;;
8098;SDS011;4092;47.876;9.372;2023-12-14T12:51:31;2.57;;;2.10;;
8098;SDS011;4092;47.876;9.372;2023-12-14T12:54:01;7.70;;;3.60;;
8098;SDS011;4092;47.876;9.372;2023-12-14T12:56:29;3.73;;;2.13;;
8098;SDS011;4092;47.876;9.372;2023-12-14T12:58:56;2.50;;;2.07;;
8098;SDS011;4092;47.876;9.372;2023-12-14T13:01:23;3.17;;;2.23;;
8098;SDS011;4092;47.876;9.372;2023-12-14T13:03:52;3.57;;;2.70;;
8098;SDS011;4092;47.876;9.372;2023-12-14T13:06:22;3.30;;;2.50;;
8098;SDS011;4092;47.876;9.372;2023-12-14T13:08:50;1.70;;;1.57;;
8098;SDS011;4092;47.876;9.372;2023-12-14T13:11:18;2.50;;;1.67;;
8098;SDS011;4092;47.876;9.372;2023-12-14T13:13:45;2.63;;;1.50;;
8098;SDS011;4092;47.876;9.372;2023-12-14T13:16:12;2.17;;;1.30;;
8098;SDS011;4092;47.876;9.372;2023-12-14T13:18:42;1.37;;;1.07;;
8098;SDS011;4092;47.876;9.372;2023-12-14T13:21:10;2.70;;;1.53;;
8098;SDS011;4092;47.876;9.372;2023-12-14T13:23:38;1.30;;;0.90;;
8098;SDS011;4092;47.876;9.372;2023-12-14T13:26:05;1.80;;;1.20;;
8098;SDS011;4092;47.876;9.372;2023-12-14T13:28:34;1.20;;;1.00;;
8098;SDS011;4092;47.876;9.372;2023-12-14T13:31:01;1.40;;;1.30;;
8098;SDS011;4092;47.876;9.372;2023-12-14T13:33:28;1.37;;;0.80;;
8098;SDS011;4092;47.876;9.372;2023-12-14T13:35:56;1.70;;;1.10;;
8098;SDS011;4092;47.876;9.372;2023-12-14T13:38:23;1.37;;;0.90;;
8098;SDS011;4092;47.876;9.372;2023-12-14T13:40:51;1.03;;;0.93;;
8098;SDS011;4092;47.876;9.372;2023-12-14T13:43:18;0.93;;;0.73;;
8098;SDS011;4092;47.876;9.372;2023-12-14T13:45:46;1.40;;;0.80;;
8098;SDS011;4092;47.876;9.372;2023-12-14T13:48:13;1.00;;;0.80;;
8098;SDS011;4092;47.876;9.372;2023-12-14T13:50:40;1.17;;;0.80;;
8098;SDS011;4092;47.876;9.372;2023-12-14T13:53:07;0.97;;;0.80;;
8098;SDS011;4092;47.876;9.372;2023-12-14T13:55:34;0.90;;;0.70;;
8098;SDS011;4092;47.876;9.372;2023-12-14T13:58:01;0.90;;;0.60;;
8098;SDS011;4092;47.876;9.372;2023-12-14T14:00:28;1.50;;;0.80;;
8098;SDS011;4092;47.876;9.372;2023-12-14T14:02:57;0.90;;;0.70;;
8098;SDS011;4092;47.876;9.372;2023-12-14T14:05:24;2.83;;;1.33;;
8098;SDS011;4092;47.876;9.372;2023-12-14T14:07:51;1.10;;;0.90;;
8098;SDS011;4092;47.876;9.372;2023-12-14T14:10:18;1.30;;;0.67;;
8098;SDS011;4092;47.876;9.372;2023-12-14T14:12:45;1.00;;;0.80;;
8098;SDS011;4092;47.876;9.372;2023-12-14T14:15:13;2.30;;;0.70;;
8098;SDS011;4092;47.876;9.372;2023-12-14T14:17:40;0.90;;;0.60;;
8098;SDS011;4092;47.876;9.372;2023-12-14T14:20:09;1.63;;;1.00;;
8098;SDS011;4092;47.876;9.372;2023-12-14T14:22:37;0.90;;;0.60;;
8098;SDS011;4092;47.876;9.372;2023-12-14T14:25:04;0.90;;;0.70;;
8098;SDS011;4092;47.876;9.372;2023-12-14T14:27:32;1.07;;;0.70;;
8098;SDS011;4092;47.876;9.372;2023-12-14T14:30:00;1.30;;;0.87;;
8098;SDS011;4092;47.876;9.372;2023-12-14T14:32:27;1.00;;;0.70;;
8098;SDS011;4092;47.876;9.372;2023-12-14T14:34:56;1.47;;;0.77;;
8098;SDS011;4092;47.876;9.372;2023-12-14T14:37:27;2.60;;;1.23;;
8098;SDS011;4092;47.876;9.372;2023-12-14T14:39:54;1.03;;;0.63;;
8098;SDS011;4092;47.876;9.372;2023-12-14T14:42:21;0.90;;;0.70;;
8098;SDS011;4092;47.876;9.372;2023-12-14T14:44:48;1.00;;;0.73;;
8098;SDS011;4092;47.876;9.372;2023-12-14T14:47:15;1.10;;;0.80;;
8098;SDS011;4092;47.876;9.372;2023-12-14T14:49:42;0.90;;;0.73;;
8098;SDS011;4092;47.876;9.372;2023-12-14T14:52:10;1.00;;;0.80;;
8098;SDS011;4092;47.876;9.372;2023-12-14T14:54:38;0.90;;;0.80;;
8098;SDS011;4092;47.876;9.372;2023-12-14T14:57:05;2.17;;;1.00;;
8098;SDS011;4092;47.876;9.372;2023-12-14T14:59:32;0.90;;;0.73;;
8098;SDS011;4092;47.876;9.372;2023-12-14T15:02:00;0.90;;;0.70;;
8098;SDS011;4092;47.876;9.372;2023-12-14T15:04:27;2.00;;;1.33;;
8098;SDS011;4092;47.876;9.372;2023-12-14T15:06:54;1.50;;;1.03;;
8098;SDS011;4092;47.876;9.372;2023-12-14T15:09:21;1.77;;;0.80;;
8098;SDS011;4092;47.876;9.372;2023-12-14T15:11:49;1.63;;;1.53;;
8098;SDS011;4092;47.876;9.372;2023-12-14T15:14:16;1.00;;;0.80;;
8098;SDS011;4092;47.876;9.372;2023-12-14T15:16:44;2.43;;;1.03;;
8098;SDS011;4092;47.876;9.372;2023-12-14T15:19:11;1.50;;;1.10;;